Time;durP1;ratioP1;P1;durP2;ratioP2;P2;SDS_P1;SDS_P2;PMS_P1;PMS_P2;Temp;Humidity;BMP_temperature;BMP_pressure;BME280_temperature;BME280_humidity;BME280_pressure;Samples;Min_cycle;Max_cycle;Signal;HPM_P1;HPM_P2
2022/07/20 00:00:34;;;;;;;3.55;1.70;;;22.60;48.50;;;;;;5003019;28;20022;-48
2022/07/20 00:03:04;;;;;;;2.78;1.40;;;22.50;47.60;;;;;;5003345;28;20022;-48
2022/07/20 00:05:29;;;;;;;3.55;1.42;;;22.50;47.70;;;;;;5034726;28;20030;-48
2022/07/20 00:07:55;;;;;;;2.78;1.30;;;22.50;47.80;;;;;;5003403;28;20038;-48
2022/07/20 00:13:05;;;;;;;3.80;1.38;;;22.40;48.00;;;;;;5003394;28;20072;-48
2022/07/20 00:15:31;;;;;;;4.47;1.60;;;22.40;48.00;;;;;;5002864;28;20030;-48
2022/07/20 00:17:57;;;;;;;3.08;1.35;;;22.40;48.20;;;;;;5003300;28;20022;-48
2022/07/20 00:20:23;;;;;;;2.95;1.30;;;22.40;48.10;;;;;;5003082;28;20034;-48
2022/07/20 00:22:48;;;;;;;2.90;1.48;;;22.40;48.00;;;;;;5002908;28;20026;-48
2022/07/20 00:25:14;;;;;;;3.65;1.40;;;22.40;48.10;;;;;;5002863;28;20061;-48
2022/07/20 00:27:40;;;;;;;3.03;1.38;;;22.30;48.30;;;;;;5002653;28;20061;-48
2022/07/20 00:30:06;;;;;;;3.65;1.30;;;22.40;48.10;;;;;;5002799;28;20415;-48
2022/07/20 00:32:39;;;;;;;3.92;1.35;;;22.30;48.40;;;;;;5002832;28;20052;-48
2022/07/20 00:35:10;;;;;;;3.78;1.45;;;22.30;48.90;;;;;;5002509;28;20089;-48
2022/07/20 00:37:35;;;;;;;2.75;1.30;;;22.30;48.10;;;;;;5002824;28;20096;-48
2022/07/20 00:40:03;;;;;;;4.05;1.63;;;22.30;48.20;;;;;;5002323;28;20490;-48
2022/07/20 00:42:28;;;;;;;5.40;1.33;;;22.30;48.10;;;;;;5005577;28;20034;-48
2022/07/20 00:44:54;;;;;;;3.45;1.42;;;22.30;48.10;;;;;;5006729;28;20021;-48
2022/07/20 00:47:20;;;;;;;3.17;1.40;;;22.20;48.20;;;;;;5005650;28;20040;-48
2022/07/20 00:49:45;;;;;;;3.95;1.10;;;22.20;48.40;;;;;;5006690;28;20091;-48
2022/07/20 00:52:12;;;;;;;3.13;1.30;;;22.20;48.30;;;;;;5005627;28;20030;-49
2022/07/20 00:54:39;;;;;;;3.05;1.33;;;22.20;48.10;;;;;;5005370;28;20089;-48
2022/07/20 00:57:05;;;;;;;4.43;1.38;;;22.20;48.00;;;;;;5008938;28;20324;-48
2022/07/20 00:59:30;;;;;;;3.85;1.70;;;22.20;48.20;;;;;;5025400;28;20032;-48
2022/07/20 01:01:56;;;;;;;2.75;1.42;;;22.20;48.30;;;;;;5011137;28;20090;-48
2022/07/20 01:04:22;;;;;;;3.05;1.10;;;22.20;48.50;;;;;;5006192;28;20037;-48
2022/07/20 01:06:49;;;;;;;2.90;1.30;;;22.10;48.50;;;;;;5006300;28;20672;-48
2022/07/20 01:09:18;;;;;;;3.38;1.60;;;22.10;48.50;;;;;;5005738;28;20064;-48
2022/07/20 01:11:44;;;;;;;3.42;1.63;;;22.10;48.40;;;;;;5006178;28;20018;-48
2022/07/20 01:14:10;;;;;;;3.92;1.38;;;22.10;48.40;;;;;;5006189;28;20030;-48
2022/07/20 01:16:38;;;;;;;2.85;1.48;;;22.10;48.60;;;;;;5004916;28;20037;-48
2022/07/20 01:19:05;;;;;;;3.40;1.27;;;22.10;48.60;;;;;;5006264;28;20083;-48
2022/07/20 01:21:31;;;;;;;3.70;1.55;;;22.10;48.60;;;;;;5005536;28;20095;-48
2022/07/20 01:23:57;;;;;;;2.85;1.42;;;22.10;49.50;;;;;;5005958;28;20104;-48
2022/07/20 01:26:23;;;;;;;5.90;1.67;;;22.00;48.70;;;;;;5005855;28;20137;-48
2022/07/20 01:28:49;;;;;;;3.95;1.15;;;22.00;48.80;;;;;;5005532;28;20402;-48
2022/07/20 01:31:15;;;;;;;3.50;1.60;;;22.10;48.90;;;;;;5005302;28;20030;-48
2022/07/20 01:33:41;;;;;;;2.63;1.30;;;22.00;48.80;;;;;;5005617;28;20030;-48
2022/07/20 01:36:07;;;;;;;3.20;1.27;;;22.00;48.90;;;;;;5005820;28;20164;-48
2022/07/20 01:38:33;;;;;;;4.32;1.70;;;22.00;48.90;;;;;;5004555;28;20053;-48
2022/07/20 01:40:58;;;;;;;3.28;1.30;;;22.00;49.00;;;;;;5005059;28;20036;-48
2022/07/20 01:43:24;;;;;;;2.95;1.55;;;22.00;49.10;;;;;;5005716;28;20026;-48
2022/07/20 01:45:50;;;;;;;3.20;1.48;;;22.00;49.10;;;;;;5004651;28;20059;-48
2022/07/20 01:48:15;;;;;;;3.10;1.30;;;22.00;49.00;;;;;;5005197;28;20028;-49
2022/07/20 01:50:41;;;;;;;2.90;1.20;;;22.00;49.00;;;;;;5004947;28;20026;-48
2022/07/20 01:53:08;;;;;;;4.07;1.42;;;22.00;49.00;;;;;;5004092;28;20073;-48
2022/07/20 01:55:34;;;;;;;3.20;1.30;;;21.90;49.00;;;;;;5005091;28;20532;-47
2022/07/20 01:58:00;;;;;;;2.53;1.20;;;21.90;48.90;;;;;;5014897;28;20048;-49
2022/07/20 02:00:25;;;;;;;2.97;1.35;;;21.90;48.90;;;;;;5022148;28;20647;-48
2022/07/20 02:02:51;;;;;;;3.45;1.27;;;21.90;49.10;;;;;;5005261;28;20026;-48
2022/07/20 02:05:18;;;;;;;3.65;1.50;;;21.90;49.10;;;;;;5005196;28;20704;-47
2022/07/20 02:07:44;;;;;;;2.53;1.20;;;21.90;49.20;;;;;;5005072;28;20733;-48
2022/07/20 02:10:12;;;;;;;3.53;1.30;;;21.90;49.20;;;;;;5004126;28;20068;-48
2022/07/20 02:12:39;;;;;;;3.38;1.38;;;21.90;49.10;;;;;;5005425;28;20034;-48
2022/07/20 02:15:09;;;;;;;2.88;1.13;;;21.90;49.40;;;;;;5004189;28;20030;-48
2022/07/20 02:17:36;;;;;;;4.13;1.48;;;21.90;49.20;;;;;;5004628;28;20030;-48
2022/07/20 02:20:02;;;;;;;2.70;1.33;;;21.90;49.50;;;;;;5004863;28;20034;-48
2022/07/20 02:22:28;;;;;;;2.42;1.17;;;21.90;49.40;;;;;;5004052;28;20113;-48
2022/07/20 02:24:53;;;;;;;2.97;1.33;;;21.80;49.30;;;;;;5004416;28;20101;-48
2022/07/20 02:27:19;;;;;;;4.35;1.70;;;21.80;50.00;;;;;;5008973;28;20116;-48
2022/07/20 02:29:45;;;;;;;2.08;1.20;;;21.70;49.40;;;;;;5024505;28;20152;-48
2022/07/20 02:32:10;;;;;;;3.40;1.27;;;21.70;49.50;;;;;;5009381;28;20037;-48
2022/07/20 02:34:36;;;;;;;2.63;1.10;;;21.70;49.60;;;;;;5004156;28;20032;-48
2022/07/20 02:37:02;;;;;;;2.17;1.15;;;21.70;49.90;;;;;;5004153;28;20104;-48
2022/07/20 02:39:27;;;;;;;2.53;1.10;;;21.70;50.00;;;;;;5003797;28;20038;-48
2022/07/20 02:41:53;;;;;;;3.88;1.35;;;21.70;49.80;;;;;;5003481;28;20037;-48
2022/07/20 02:44:19;;;;;;;3.28;1.40;;;21.70;49.70;;;;;;5004970;28;20033;-48
2022/07/20 02:46:44;;;;;;;2.45;1.20;;;21.70;49.90;;;;;;5003566;28;20041;-48
2022/07/20 02:49:10;;;;;;;2.30;1.35;;;21.70;50.00;;;;;;5004353;28;20747;-47
2022/07/20 02:51:36;;;;;;;2.60;1.13;;;21.70;50.20;;;;;;5003735;28;20087;-48
2022/07/20 02:54:01;;;;;;;3.15;1.33;;;21.70;50.20;;;;;;5003778;28;20457;-48
2022/07/20 02:56:27;;;;;;;2.28;1.27;;;21.70;50.10;;;;;;5003835;28;20022;-48
2022/07/20 02:58:53;;;;;;;2.78;1.40;;;21.70;50.00;;;;;;5004304;28;20386;-48
2022/07/20 03:01:18;;;;;;;3.95;1.50;;;21.70;50.30;;;;;;5003917;28;20038;-48
2022/07/20 03:03:44;;;;;;;4.47;1.30;;;21.70;50.20;;;;;;5003321;28;20032;-48
2022/07/20 03:06:10;;;;;;;3.00;1.50;;;21.60;50.00;;;;;;5003624;28;20026;-48
2022/07/20 03:08:35;;;;;;;2.45;1.30;;;21.60;50.20;;;;;;5003714;28;20037;-48
2022/07/20 03:11:01;;;;;;;3.58;1.95;;;21.60;50.40;;;;;;5003653;28;20698;-48
2022/07/20 03:13:27;;;;;;;4.60;1.77;;;21.60;50.40;;;;;;5003769;28;20049;-48
2022/07/20 03:15:53;;;;;;;3.63;1.40;;;21.60;50.50;;;;;;5003249;28;20026;-48
2022/07/20 03:18:18;;;;;;;3.55;1.45;;;21.60;50.60;;;;;;5004319;28;20030;-48
2022/07/20 03:20:44;;;;;;;3.08;1.48;;;21.60;50.60;;;;;;5003747;28;20045;-48
2022/07/20 03:23:10;;;;;;;3.30;1.75;;;21.60;50.60;;;;;;5003313;28;20426;-48
2022/07/20 03:25:36;;;;;;;3.53;1.48;;;21.60;50.70;;;;;;5003779;28;20133;-48
2022/07/20 03:28:01;;;;;;;3.80;1.67;;;21.60;50.90;;;;;;5003221;28;20057;-48
2022/07/20 03:30:28;;;;;;;3.22;1.35;;;21.60;51.00;;;;;;5003510;28;20728;-48
2022/07/20 03:32:55;;;;;;;3.20;1.58;;;21.60;51.00;;;;;;5003001;28;20030;-48
2022/07/20 03:35:20;;;;;;;3.47;1.70;;;21.60;51.00;;;;;;5003371;28;20112;-48
2022/07/20 03:37:46;;;;;;;3.28;1.50;;;21.50;51.00;;;;;;5002954;28;20069;-48
2022/07/20 03:40:12;;;;;;;4.90;1.60;;;21.50;50.90;;;;;;5003107;28;20045;-48
2022/07/20 03:42:38;;;;;;;3.58;1.60;;;21.50;50.80;;;;;;5003349;28;20024;-48
2022/07/20 03:45:04;;;;;;;4.55;1.83;;;21.50;51.10;;;;;;5022838;28;20037;-50
2022/07/20 03:47:30;;;;;;;3.88;2.05;;;21.50;51.10;;;;;;5006494;28;20457;-48
2022/07/20 03:49:56;;;;;;;4.10;1.83;;;21.50;51.10;;;;;;5003102;28;20034;-48
2022/07/20 03:52:22;;;;;;;4.22;2.25;;;21.50;51.30;;;;;;5002443;28;20104;-48
2022/07/20 03:54:48;;;;;;;4.32;1.50;;;21.50;51.30;;;;;;5003068;28;20028;-47
2022/07/20 03:57:14;;;;;;;3.63;1.77;;;21.50;51.20;;;;;;5003179;28;20101;-49
2022/07/20 03:59:40;;;;;;;3.10;1.88;;;21.50;51.20;;;;;;5003069;28;20045;-48
2022/07/20 04:02:06;;;;;;;3.63;1.50;;;21.40;51.40;;;;;;5003221;28;20714;-48
2022/07/20 04:04:32;;;;;;;3.75;1.40;;;21.50;51.40;;;;;;5002943;28;20113;-47
2022/07/20 04:06:57;;;;;;;3.28;1.52;;;21.50;51.30;;;;;;5002925;28;20057;-48
2022/07/20 04:12:09;;;;;;;4.75;1.63;;;21.40;51.30;;;;;;5022465;28;20109;-48
2022/07/20 04:14:34;;;;;;;3.50;1.35;;;21.40;51.30;;;;;;5023103;28;20755;-48
2022/07/20 04:17:00;;;;;;;4.80;1.70;;;21.40;51.40;;;;;;5012494;28;20052;-48
2022/07/20 04:19:26;;;;;;;3.28;1.50;;;21.40;51.60;;;;;;5007246;28;20041;-48
2022/07/20 04:21:57;;;;;;;3.05;1.55;;;21.40;51.60;;;;;;5006330;28;20034;-48
2022/07/20 04:24:22;;;;;;;4.13;1.45;;;21.40;51.40;;;;;;5006988;28;20065;-48
2022/07/20 04:26:48;;;;;;;3.83;1.92;;;21.40;51.30;;;;;;5006398;28;20490;-48
2022/07/20 04:29:14;;;;;;;3.55;1.95;;;21.40;51.20;;;;;;5006569;28;20034;-48
2022/07/20 04:31:40;;;;;;;3.55;1.90;;;21.40;51.30;;;;;;5006117;28;20034;-48
2022/07/20 04:34:05;;;;;;;3.97;1.77;;;21.40;51.40;;;;;;5006549;28;20462;-48
2022/07/20 04:36:31;;;;;;;3.65;2.10;;;21.40;51.40;;;;;;5006695;28;20032;-48
2022/07/20 04:38:57;;;;;;;3.15;1.70;;;21.40;51.50;;;;;;5022280;28;20119;-48
2022/07/20 04:41:22;;;;;;;4.80;1.98;;;21.40;51.50;;;;;;5014916;28;20036;-47
2022/07/20 04:43:48;;;;;;;3.78;1.98;;;21.30;51.50;;;;;;5006182;28;20180;-48
2022/07/20 04:46:14;;;;;;;5.18;2.08;;;21.40;51.90;;;;;;5005134;28;20041;-48
2022/07/20 04:48:39;;;;;;;4.95;1.90;;;21.40;51.90;;;;;;5006425;28;20608;-49
2022/07/20 04:51:05;;;;;;;4.10;2.13;;;21.40;51.70;;;;;;5006090;28;20029;-49
2022/07/20 04:53:31;;;;;;;6.43;2.33;;;21.40;51.80;;;;;;5005852;28;20663;-49
2022/07/20 04:55:56;;;;;;;6.65;2.58;;;21.30;52.10;;;;;;5005788;28;20030;-49
2022/07/20 04:58:22;;;;;;;5.65;2.25;;;21.40;52.30;;;;;;5005825;28;20076;-49
2022/07/20 05:00:47;;;;;;;5.90;2.30;;;21.40;52.60;;;;;;5005717;28;20053;-49
2022/07/20 05:03:13;;;;;;;6.90;2.85;;;21.40;51.60;;;;;;5006179;28;20041;-50
2022/07/20 05:05:39;;;;;;;8.80;2.83;;;21.40;51.60;;;;;;5005853;28;20032;-49
2022/07/20 05:08:05;;;;;;;6.68;2.60;;;21.40;51.60;;;;;;5014759;28;20065;-48
2022/07/20 05:10:30;;;;;;;5.85;2.50;;;21.40;51.60;;;;;;5024975;28;20044;-49
2022/07/20 05:12:56;;;;;;;9.02;2.90;;;21.40;51.70;;;;;;5026020;28;20025;-50
2022/07/20 05:15:23;;;;;;;6.82;2.97;;;21.40;51.80;;;;;;5025047;28;20683;-49
2022/07/20 05:17:50;;;;;;;8.45;2.25;;;21.40;51.70;;;;;;5008524;28;20014;-50
2022/07/20 05:20:16;;;;;;;5.97;2.50;;;21.40;52.30;;;;;;5000943;28;20431;-49
2022/07/20 05:22:41;;;;;;;9.38;3.53;;;21.40;52.50;;;;;;5004582;28;20022;-48
2022/07/20 05:25:07;;;;;;;6.25;2.70;;;21.40;52.40;;;;;;5003055;28;20045;-49
2022/07/20 05:27:33;;;;;;;7.53;2.72;;;21.40;51.90;;;;;;5004296;28;20030;-51
2022/07/20 05:29:59;;;;;;;6.97;2.80;;;21.30;51.10;;;;;;5003036;28;20064;-50
2022/07/20 05:32:25;;;;;;;5.88;2.78;;;21.40;52.20;;;;;;4999999;28;20034;-50
2022/07/20 05:34:50;;;;;;;6.90;2.40;;;21.30;52.00;;;;;;5003696;28;20100;-49
2022/07/20 05:37:16;;;;;;;6.45;2.72;;;21.30;53.20;;;;;;5004741;28;20125;-49
2022/07/20 05:39:42;;;;;;;4.72;2.30;;;21.40;54.20;;;;;;5003982;28;20033;-49
2022/07/20 05:42:07;;;;;;;4.60;2.40;;;21.50;53.80;;;;;;5004475;28;20057;-50
2022/07/20 05:44:33;;;;;;;6.55;2.70;;;21.50;54.10;;;;;;5004629;28;20058;-50
2022/07/20 05:46:59;;;;;;;4.72;2.63;;;21.70;53.80;;;;;;5003666;28;20037;-49
2022/07/20 05:49:24;;;;;;;5.03;2.55;;;21.70;53.40;;;;;;4993923;28;20092;-48
2022/07/20 05:51:50;;;;;;;6.05;2.80;;;21.80;53.10;;;;;;4994703;28;20072;-49
2022/07/20 05:54:16;;;;;;;5.00;2.00;;;21.90;52.90;;;;;;4994076;28;20093;-48
2022/07/20 05:56:41;;;;;;;4.82;2.60;;;22.00;52.70;;;;;;5025426;28;20017;-50
2022/07/20 05:59:07;;;;;;;5.30;2.30;;;22.00;52.50;;;;;;4994889;28;20030;-49
2022/07/20 06:01:33;;;;;;;4.80;2.10;;;22.10;52.50;;;;;;4994999;28;20029;-48
2022/07/20 06:03:59;;;;;;;6.95;2.17;;;22.20;52.40;;;;;;4993710;28;20648;-49
2022/07/20 06:06:25;;;;;;;4.78;2.03;;;22.30;52.40;;;;;;4990498;28;20054;-52
2022/07/20 06:08:51;;;;;;;7.78;3.03;;;22.30;52.30;;;;;;5003905;28;20121;-47
2022/07/20 06:11:16;;;;;;;6.07;2.70;;;22.40;52.20;;;;;;4997255;28;20062;-49
2022/07/20 06:13:42;;;;;;;5.07;2.63;;;22.40;53.40;;;;;;4999155;28;20022;-50
2022/07/20 06:16:08;;;;;;;5.43;3.08;;;22.40;53.50;;;;;;4995160;28;20023;-50
2022/07/20 06:18:33;;;;;;;5.55;2.92;;;22.50;53.50;;;;;;4996353;28;20739;-49
2022/07/20 06:20:59;;;;;;;5.05;2.20;;;22.60;52.90;;;;;;4994671;28;20522;-50
2022/07/20 06:23:25;;;;;;;8.45;2.90;;;22.60;52.30;;;;;;4993153;28;20023;-49
2022/07/20 06:25:50;;;;;;;3.40;2.03;;;22.70;52.20;;;;;;4993339;28;20371;-50
2022/07/20 06:28:16;;;;;;;3.83;2.25;;;22.70;52.00;;;;;;4996834;28;20491;-48
2022/07/20 06:30:42;;;;;;;3.80;1.95;;;22.70;51.90;;;;;;4994808;28;20049;-51
2022/07/20 06:33:07;;;;;;;4.50;2.50;;;22.80;51.90;;;;;;5001193;28;20034;-48
2022/07/20 06:35:33;;;;;;;5.22;2.47;;;22.80;51.90;;;;;;5001033;28;20029;-49
2022/07/20 06:37:59;;;;;;;5.72;2.35;;;22.90;51.90;;;;;;5010952;28;20034;-48
2022/07/20 06:40:24;;;;;;;4.50;2.25;;;22.90;51.90;;;;;;5009519;28;20600;-50
2022/07/20 06:42:50;;;;;;;4.15;2.28;;;23.00;51.70;;;;;;5003274;28;20367;-49
2022/07/20 06:45:17;;;;;;;4.25;2.40;;;23.00;51.50;;;;;;5000904;28;20159;-49
2022/07/20 06:47:43;;;;;;;6.22;2.38;;;23.00;51.30;;;;;;4999044;28;20065;-50
2022/07/20 06:50:08;;;;;;;3.95;2.25;;;23.10;51.80;;;;;;5001657;28;20246;-49
2022/07/20 06:52:35;;;;;;;5.53;2.70;;;23.20;51.70;;;;;;4999344;28;20037;-48
2022/07/20 06:55:01;;;;;;;5.00;2.50;;;23.20;52.40;;;;;;5002991;28;21255;-49
2022/07/20 06:57:27;;;;;;;5.68;2.63;;;23.20;52.20;;;;;;4992346;28;20045;-47
2022/07/20 06:59:52;;;;;;;4.22;2.25;;;23.30;52.30;;;;;;4989956;28;20022;-48
2022/07/20 07:02:18;;;;;;;7.00;2.90;;;23.30;51.80;;;;;;4998663;28;20069;-48
2022/07/20 07:04:44;;;;;;;4.55;2.67;;;23.30;51.30;;;;;;5002416;28;20530;-49
2022/07/20 07:07:09;;;;;;;3.90;2.33;;;23.40;50.90;;;;;;5001885;28;20025;-50
2022/07/20 07:09:35;;;;;;;5.68;2.50;;;23.40;50.80;;;;;;5002789;28;20057;-50
2022/07/20 07:12:01;;;;;;;7.15;3.20;;;23.50;52.20;;;;;;5002311;28;20097;-49
2022/07/20 07:14:26;;;;;;;6.45;2.38;;;23.40;52.30;;;;;;5001636;28;20030;-50
2022/07/20 07:16:55;;;;;;;4.80;2.40;;;23.50;52.50;;;;;;5001660;28;20084;-50
2022/07/20 07:19:21;;;;;;;4.55;2.70;;;23.50;52.30;;;;;;5000264;28;20026;-48
2022/07/20 07:21:46;;;;;;;5.93;2.92;;;23.50;52.50;;;;;;5002100;28;20708;-50
2022/07/20 07:24:12;;;;;;;6.03;2.70;;;23.60;52.10;;;;;;5002222;28;20018;-49
2022/07/20 07:26:38;;;;;;;5.13;2.83;;;23.60;51.50;;;;;;5002069;28;20080;-54
2022/07/20 07:29:04;;;;;;;5.13;2.67;;;23.70;51.40;;;;;;5000831;28;20045;-49
2022/07/20 07:31:30;;;;;;;6.30;2.42;;;23.70;51.00;;;;;;5000058;28;20097;-49
2022/07/20 07:33:56;;;;;;;7.10;2.83;;;23.70;50.70;;;;;;5001254;28;20033;-49
2022/07/20 07:36:22;;;;;;;5.18;2.53;;;23.70;50.60;;;;;;4999515;28;20034;-49
2022/07/20 07:38:47;;;;;;;5.65;2.70;;;23.70;50.50;;;;;;4998312;28;20036;-50
2022/07/20 07:41:13;;;;;;;5.70;2.72;;;23.70;50.60;;;;;;5002088;28;20029;-49
2022/07/20 07:43:39;;;;;;;5.63;2.33;;;23.70;50.40;;;;;;5002837;28;20055;-51
2022/07/20 07:46:05;;;;;;;5.53;2.42;;;23.80;50.20;;;;;;5002579;28;20034;-49
2022/07/20 07:48:30;;;;;;;5.43;2.47;;;23.80;50.20;;;;;;5034894;28;20049;-48
2022/07/20 07:50:56;;;;;;;4.45;2.70;;;23.80;50.20;;;;;;5003388;28;20061;-49
2022/07/20 07:53:22;;;;;;;5.57;2.47;;;23.90;50.30;;;;;;5003215;28;20057;-48
2022/07/20 07:55:48;;;;;;;6.05;2.63;;;23.90;50.10;;;;;;5002671;28;20509;-50
2022/07/20 07:58:13;;;;;;;4.93;2.30;;;23.90;50.10;;;;;;5003379;28;20034;-50
2022/07/20 08:00:40;;;;;;;7.65;3.25;;;23.90;50.10;;;;;;4996842;28;20294;-49
2022/07/20 08:03:06;;;;;;;4.65;2.45;;;24.00;50.30;;;;;;4998260;28;20022;-50
2022/07/20 08:05:33;;;;;;;6.25;2.67;;;24.00;50.60;;;;;;4998222;28;20105;-50
2022/07/20 08:08:06;;;;;;;5.45;2.42;;;23.90;50.20;;;;;;5001223;28;20113;-48
2022/07/20 08:10:32;;;;;;;;;;;23.90;49.90;;;;;;5001567;28;20609;-49
2022/07/20 08:12:58;;;;;;;3.58;1.77;;;24.00;50.00;;;;;;5003205;28;20341;-50
2022/07/20 08:15:23;;;;;;;5.43;2.28;;;24.00;49.70;;;;;;5002809;28;20093;-49
2022/07/20 08:17:49;;;;;;;5.57;2.35;;;24.00;49.70;;;;;;5002593;28;20071;-49
2022/07/20 08:20:18;;;;;;;4.82;2.47;;;24.00;49.80;;;;;;5002954;28;20030;-50
2022/07/20 08:22:43;;;;;;;6.70;3.00;;;24.00;49.60;;;;;;5002521;28;20057;-50
2022/07/20 08:25:09;;;;;;;4.63;2.25;;;24.00;49.60;;;;;;5002725;28;20072;-49
2022/07/20 08:27:35;;;;;;;3.53;1.90;;;24.00;49.60;;;;;;5002529;28;20041;-49
2022/07/20 08:30:01;;;;;;;4.63;2.42;;;24.00;49.50;;;;;;5003185;28;20054;-48
2022/07/20 08:32:27;;;;;;;4.25;2.28;;;24.10;49.50;;;;;;5002850;28;20029;-49
2022/07/20 08:34:53;;;;;;;5.57;2.30;;;24.10;49.50;;;;;;5001650;28;20030;-49
2022/07/20 08:37:19;;;;;;;3.95;2.05;;;24.00;49.30;;;;;;5004848;28;20446;-50
2022/07/20 08:39:45;;;;;;;5.50;2.13;;;24.10;49.40;;;;;;5022331;28;20522;-50
2022/07/20 08:42:11;;;;;;;4.32;2.03;;;24.10;49.40;;;;;;5022142;28;20105;-50
2022/07/20 08:44:39;;;;;;;5.45;2.08;;;24.10;49.40;;;;;;5022357;28;20060;-48
2022/07/20 08:47:05;;;;;;;5.25;2.28;;;24.10;49.40;;;;;;5014752;28;20022;-49
2022/07/20 08:49:32;;;;;;;4.47;1.90;;;24.10;49.40;;;;;;5002707;28;20088;-49
2022/07/20 08:51:58;;;;;;;4.28;2.08;;;24.10;49.50;;;;;;5034364;28;20026;-49
2022/07/20 08:54:26;;;;;;;5.90;2.13;;;24.10;49.30;;;;;;5002784;28;20022;-48
2022/07/20 08:56:51;;;;;;;5.82;2.38;;;24.10;49.20;;;;;;4998008;28;20161;-50
2022/07/20 08:59:17;;;;;;;4.82;1.80;;;24.20;49.30;;;;;;4996547;28;20121;-49
2022/07/20 09:01:58;;;;;;;4.60;1.95;;;24.20;49.20;;;;;;4995143;28;20092;-49
2022/07/20 09:04:24;;;;;;;4.85;2.25;;;24.20;51.60;;;;;;5002028;28;20022;-50
2022/07/20 09:06:50;;;;;;;6.38;2.42;;;24.20;53.00;;;;;;4998583;28;20048;-48
2022/07/20 09:09:17;;;;;;;4.43;2.10;;;24.20;53.00;;;;;;5003619;28;20596;-50
2022/07/20 09:11:43;;;;;;;4.40;2.15;;;24.20;52.70;;;;;;5003950;28;20026;-50
2022/07/20 09:14:09;;;;;;;4.00;1.90;;;24.20;51.80;;;;;;5003739;28;20018;-48
2022/07/20 09:16:46;;;;;;;6.22;2.20;;;24.30;51.70;;;;;;5004480;28;20030;-50
2022/07/20 09:19:14;;;;;;;5.15;1.90;;;24.30;51.40;;;;;;5004290;28;20014;-49
2022/07/20 09:21:41;;;;;;;4.63;2.05;;;24.30;51.00;;;;;;5005039;28;20022;-48
2022/07/20 09:24:08;;;;;;;5.85;2.15;;;24.30;50.80;;;;;;5003238;28;20033;-48
2022/07/20 09:26:35;;;;;;;4.00;1.90;;;24.30;51.00;;;;;;5004428;28;20064;-48
2022/07/20 09:29:03;;;;;;;3.78;1.98;;;24.30;51.00;;;;;;5004776;28;20030;-48
2022/07/20 09:31:35;;;;;;;4.82;2.05;;;24.30;50.80;;;;;;4999827;28;20034;-50
2022/07/20 09:34:14;;;;;;;7.15;2.85;;;24.30;50.70;;;;;;5030275;28;20132;-49
2022/07/20 09:36:43;;;;;;;12.45;4.47;;;24.30;52.60;;;;;;5017746;28;20026;-50
2022/07/20 09:39:19;;;;;;;12.65;3.97;;;24.30;52.60;;;;;;5005983;28;20502;-51
2022/07/20 09:41:52;;;;;;;11.20;3.55;;;24.40;52.70;;;;;;5003259;28;20057;-49
2022/07/20 09:44:30;;;;;;;9.63;3.60;;;24.40;52.00;;;;;;5003802;28;20766;-47
2022/07/20 09:46:56;;;;;;;11.80;4.57;;;24.40;51.50;;;;;;5000916;28;20069;-47
2022/07/20 09:49:34;;;;;;;15.70;4.47;;;24.50;51.70;;;;;;5004151;28;20318;-49
2022/07/20 09:52:02;;;;;;;10.50;4.90;;;24.50;52.60;;;;;;5002641;28;20588;-49
2022/07/20 09:54:27;;;;;;;15.65;5.15;;;24.50;53.60;;;;;;5003531;28;20580;-49
2022/07/20 09:56:55;;;;;;;14.02;5.15;;;24.50;53.30;;;;;;5002033;28;20037;-49
2022/07/20 09:59:20;;;;;;;8.88;4.22;;;24.60;54.00;;;;;;5003574;28;20084;-48
2022/07/20 10:01:50;;;;;;;12.68;4.78;;;24.60;53.70;;;;;;5002193;28;20038;-49
2022/07/20 10:04:17;;;;;;;10.07;3.88;;;24.60;52.80;;;;;;5002890;28;20044;-48
2022/07/20 10:06:46;;;;;;;10.02;3.80;;;24.70;52.60;;;;;;5003829;28;20057;-48
2022/07/20 10:09:17;;;;;;;20.90;4.55;;;24.60;52.30;;;;;;5003359;28;20504;-49
2022/07/20 10:11:43;;;;;;;8.98;3.47;;;24.70;52.30;;;;;;5003868;28;20517;-48
2022/07/20 10:14:11;;;;;;;9.80;3.53;;;24.70;52.00;;;;;;5001251;28;20030;-48
2022/07/20 10:16:38;;;;;;;9.68;3.95;;;24.70;51.70;;;;;;5003560;28;20594;-48
2022/07/20 10:19:10;;;;;;;9.85;3.85;;;24.70;51.40;;;;;;5004443;28;20026;-48
2022/07/20 10:21:37;;;;;;;9.33;3.70;;;24.80;51.30;;;;;;5004504;28;20406;-48
2022/07/20 10:24:29;;;;;;;8.32;3.53;;;24.80;51.10;;;;;;5004027;28;20066;-53
2022/07/20 10:27:13;;;;;;;9.85;4.07;;;24.80;51.00;;;;;;5000478;28;20026;-48
2022/07/20 10:29:44;;;;;;;9.18;3.30;;;24.80;50.80;;;;;;4985307;28;20030;-49
2022/07/20 10:32:23;;;;;;;10.80;3.28;;;24.90;50.70;;;;;;4990522;28;20030;-49
2022/07/20 10:34:51;;;;;;;6.95;2.95;;;24.80;50.60;;;;;;5004482;28;20018;-49
2022/07/20 10:37:35;;;;;;;7.75;3.30;;;24.90;50.50;;;;;;5004400;28;20430;-48
2022/07/20 10:40:05;;;;;;;9.63;3.22;;;24.90;50.40;;;;;;5004323;28;20068;-49
2022/07/20 10:42:35;;;;;;;10.32;3.40;;;24.90;50.50;;;;;;5035187;28;20034;-48
2022/07/20 10:45:22;;;;;;;7.55;2.80;;;24.90;50.30;;;;;;5004181;28;20029;-47
2022/07/20 10:48:17;;;;;;;8.50;3.08;;;25.00;50.50;;;;;;4997825;28;20045;-48
2022/07/20 10:50:48;;;;;;;8.43;3.28;;;25.00;50.20;;;;;;4995356;28;20097;-47
2022/07/20 10:53:13;;;;;;;9.38;3.40;;;25.00;50.20;;;;;;4984514;28;20499;-49
2022/07/20 10:55:42;;;;;;;6.78;2.53;;;25.00;50.10;;;;;;4999466;28;20069;-48
2022/07/20 10:58:35;;;;;;;9.00;3.20;;;25.00;50.00;;;;;;5004787;28;20025;-50
2022/07/20 11:01:10;;;;;;;6.88;2.90;;;25.00;50.10;;;;;;5004078;28;20065;-50
2022/07/20 11:03:42;;;;;;;6.25;2.67;;;25.00;49.60;;;;;;5003679;28;20037;-48
2022/07/20 11:06:15;;;;;;;6.93;2.97;;;25.00;49.60;;;;;;5004005;28;20034;-48
2022/07/20 11:08:50;;;;;;;5.78;2.65;;;25.10;50.00;;;;;;5002698;28;20026;-49
2022/07/20 11:11:34;;;;;;;11.40;3.28;;;25.10;49.60;;;;;;5004271;28;20022;-48
2022/07/20 11:14:02;;;;;;;6.18;2.45;;;25.10;49.50;;;;;;5018811;28;20195;-48
2022/07/20 11:16:28;;;;;;;7.18;3.08;;;25.10;49.50;;;;;;4989255;28;20029;-48
2022/07/20 11:18:56;;;;;;;6.53;2.95;;;25.10;49.50;;;;;;4994002;28;20034;-48
2022/07/20 11:21:48;;;;;;;7.07;3.00;;;25.20;49.60;;;;;;4983898;28;20038;-49
2022/07/20 11:24:23;;;;;;;7.60;2.70;;;25.20;49.70;;;;;;4984891;28;20062;-49
2022/07/20 11:26:49;;;;;;;7.47;2.80;;;25.10;49.50;;;;;;5000908;28;20030;-48
2022/07/20 11:29:16;;;;;;;7.90;2.97;;;25.20;49.50;;;;;;5003701;28;20112;-48
2022/07/20 11:31:42;;;;;;;4.32;1.92;;;25.20;49.50;;;;;;5002518;28;20030;-47
2022/07/20 11:34:08;;;;;;;5.18;1.77;;;25.20;49.30;;;;;;5001521;28;20061;-48
2022/07/20 11:36:37;;;;;;;4.80;2.20;;;25.20;49.20;;;;;;4982479;28;20022;-48
2022/07/20 11:39:06;;;;;;;4.70;1.88;;;25.20;48.90;;;;;;5016024;28;20048;-49
2022/07/20 11:41:40;;;;;;;5.07;2.17;;;25.20;49.00;;;;;;5022738;28;20067;-48
2022/07/20 11:44:13;;;;;;;5.53;2.15;;;25.20;49.00;;;;;;5022600;28;20170;-48
2022/07/20 11:46:41;;;;;;;4.72;2.25;;;25.20;48.60;;;;;;5021853;28;20053;-48
2022/07/20 11:49:09;;;;;;;4.10;1.67;;;25.20;49.00;;;;;;5002727;28;20674;-49
2022/07/20 11:51:36;;;;;;;4.70;2.08;;;25.20;48.80;;;;;;5002680;28;20087;-48
2022/07/20 11:54:06;;;;;;;7.18;2.75;;;25.20;48.90;;;;;;5002879;28;20032;-48
2022/07/20 11:56:33;;;;;;;6.38;2.10;;;25.30;48.80;;;;;;5002142;28;20046;-48
2022/07/20 11:59:00;;;;;;;5.18;2.28;;;25.30;48.80;;;;;;5002628;28;20065;-49
2022/07/20 12:01:28;;;;;;;4.75;1.70;;;25.30;48.80;;;;;;5002033;28;20029;-48
2022/07/20 12:04:15;;;;;;;4.53;2.10;;;25.30;48.90;;;;;;5002943;28;20033;-48
2022/07/20 12:06:41;;;;;;;4.50;2.30;;;25.30;48.80;;;;;;5002172;28;20037;-48
2022/07/20 12:09:10;;;;;;;4.72;2.72;;;25.30;48.70;;;;;;5002873;28;20026;-49
2022/07/20 12:12:44;;;;;;;4.60;1.90;;;25.30;48.90;;;;;;5002893;28;20121;-49
2022/07/20 12:15:04;;;;;;;5.55;2.33;;;25.30;48.90;;;;;;5002297;28;20105;-49
2022/07/20 12:17:30;;;;;;;3.92;1.70;;;25.30;48.90;;;;;;5001976;28;20060;-49
2022/07/20 12:19:57;;;;;;;3.90;1.80;;;25.30;48.90;;;;;;5002665;28;20034;-49
2022/07/20 12:22:24;;;;;;;3.85;1.77;;;25.40;49.00;;;;;;5002792;28;20029;-49
2022/07/20 12:24:51;;;;;;;5.90;2.22;;;25.40;49.00;;;;;;5002194;28;20046;-49
2022/07/20 12:27:18;;;;;;;5.10;2.08;;;25.40;49.10;;;;;;5002723;28;20034;-48
2022/07/20 12:29:44;;;;;;;5.03;2.20;;;25.40;49.10;;;;;;5002143;28;20037;-49
2022/07/20 12:32:10;;;;;;;4.85;2.50;;;25.40;49.20;;;;;;5002178;28;20065;-49
2022/07/20 12:34:53;;;;;;;5.00;1.90;;;25.40;49.20;;;;;;5002115;28;20131;-49
2022/07/20 12:37:20;;;;;;;5.28;2.15;;;25.50;49.30;;;;;;5002995;28;20113;-49
2022/07/20 12:39:49;;;;;;;6.80;2.25;;;25.50;49.20;;;;;;5004324;28;20025;-48
2022/07/20 12:42:22;;;;;;;5.30;2.03;;;25.50;49.20;;;;;;5006329;28;20033;-48
2022/07/20 12:44:48;;;;;;;;;;;25.50;49.20;;;;;;5006453;28;20450;-49
2022/07/20 12:47:15;;;;;;;4.13;2.08;;;25.50;49.20;;;;;;5005795;28;20011;-49
2022/07/20 12:49:41;;;;;;;5.20;2.00;;;25.60;49.20;;;;;;5006533;28;20045;-49
2022/07/20 12:52:07;;;;;;;5.10;1.95;;;25.60;49.80;;;;;;5006046;28;20026;-49
2022/07/20 12:54:33;;;;;;;6.88;2.42;;;25.60;49.30;;;;;;5006293;28;20029;-49